Bagan Pulau Ketam, Malaysia

9:59 PM +08 on May 26, 2017 (GMT +0800)
Klang | | Change Station

Elev 20 ft 3.05 °N, 101.45 °E | Updated 10 seconds ago

Overcast
Overcast
83.1 °F
Feels Like 89 °F
N
2.7
Wind Variable Wind from South
Gusts 4.9 mph

Today
High -- | Low -- °F
--% Chance of Precip.
Yesterday
High -- | Low -- °F
Precip. -- in
Pressure 29.77 in
Visibility 6.2 miles
Clouds Few 3000 ft
Scattered Clouds 14000 ft
Mostly Cloudy 28000 ft
Heat Index 89 °F
Dew Point 73 °F
Humidity 71%
Rainfall 0.00 in
Snow Depth Not available.
7:03 AM 7:20 PM
New Moon, 1% visible
METAR WMKK 261330Z 14006KT 100V170 9999 FEW030 SCT140 BKN280 27/23 Q1008 NOSIG
Pressure 29.77 in
Visibility 6.2 miles
Clouds Few 3000 ft
Scattered Clouds 14000 ft
Mostly Cloudy 28000 ft
Heat Index 89 °F
Dew Point 73 °F
Humidity 71%
Rainfall 0.00 in
Snow Depth Not available.
7:03 AM 7:20 PM
New Moon, 1% visible
METAR WMKK 261330Z 14006KT 100V170 9999 FEW030 SCT140 BKN280 27/23 Q1008 NOSIG

Get Severe Weather Alerts

Thanks for signing up!

Be on the lookout for a verification email in your inbox.

You'll start receiving the daily forecast at 6 AM.

×

10-Day Weather Forecast

No radar image for this location.
×

Almanac

Astronomy

May. 26, 2017 Rise Set
Actual Time
Civil Twilight
Nautical Twilight
Astronomical Twilight
Moon
Length of Visible Light
Length of Day
Tomorrow will be .
, % of the Moon is Illuminated

Today's Extremes

Country Highs Country Lows

Community

WunderPhotos

Category 6

Welcome to Category 6. This is the collective home for Weather Underground's featured writeups by Dr. Jeff Masters (right), Bob Henson (left), Chris Burt, and other regular contributors.

Nearby

Air Quality

  Air Quality AQ Index Pollutant
Not available.

Snow Depth

Station Depth Elevation

Earthquake Activity

City Distance Mag. Time & Date
Minimum magnitude displayed is 2.5.

Coastal Water Temperatures

Place Temperature

Stations

Nearby Weather Stations

Station Location Temp. Windchill Dew Point Humidity Wind Precip. Elev Updated Type